Terminal Aerodrome Forecast
Issued by NWS

Home | Current Version | Previous Version | Text Only | Print | Product List | Glossary On
Versions: 1 2 3 4 5 6 7 8 9 10 11 12 13 14 15 16 17
000
FTAK31 PAFA 191134
TAFATA
TAF
PATA 191134Z 1912/2012 28004KT 3SM -SN BR OVC045
     FM192200 30005KT 4SM BR OVC035
     FM200600 28004KT 6SM BR OVC050=

USA.gov is the U.S. government's official web portal to all federal, state and local government web resources and services.